createdAt,value
2018-05-26T00:01:11.496Z,15.00
2018-05-26T00:03:45.247Z,15.00
2018-05-26T00:06:18.855Z,15.00
2018-05-26T00:08:52.496Z,14.60
2018-05-26T00:11:26.100Z,14.60
2018-05-26T00:13:59.934Z,14.60
2018-05-26T00:16:33.607Z,14.60
2018-05-26T00:19:08.235Z,14.20
2018-05-26T00:21:42.018Z,14.20
2018-05-26T00:24:15.760Z,14.20
2018-05-26T00:26:49.354Z,14.10
2018-05-26T00:29:23.092Z,14.10
2018-05-26T00:31:57.158Z,14.20
2018-05-26T00:34:30.892Z,14.10
2018-05-26T00:37:04.492Z,14.10
2018-05-26T00:39:38.367Z,14.10
2018-05-26T00:42:12.047Z,14.10
2018-05-26T00:44:45.588Z,13.90
2018-05-26T00:47:19.197Z,13.80
2018-05-26T00:49:52.801Z,13.90
2018-05-26T00:52:26.337Z,14.00
2018-05-26T00:54:59.887Z,14.00
2018-05-26T00:57:34.320Z,13.90
2018-05-26T01:00:07.976Z,13.90
2018-05-26T01:02:42.830Z,13.90
2018-05-26T01:05:16.370Z,13.90
2018-05-26T01:07:50.061Z,13.90
2018-05-26T01:10:24.443Z,13.80
2018-05-26T01:12:58.209Z,13.80
2018-05-26T01:15:32.016Z,13.70
2018-05-26T01:18:05.574Z,13.70
2018-05-26T01:20:40.625Z,13.70
2018-05-26T01:23:14.316Z,13.00
2018-05-26T01:25:47.994Z,12.90
2018-05-26T01:28:22.528Z,13.20
2018-05-26T01:30:56.209Z,13.20
2018-05-26T01:33:30.124Z,13.30
2018-05-26T01:36:04.446Z,13.30
2018-05-26T01:38:38.130Z,13.40
2018-05-26T01:41:11.872Z,13.30
2018-05-26T01:43:45.856Z,13.30
2018-05-26T01:46:19.956Z,13.40
2018-05-26T01:48:54.230Z,13.50
2018-05-26T01:51:27.919Z,13.40
2018-05-26T01:54:01.533Z,13.40
2018-05-26T01:56:35.382Z,13.40
2018-05-26T01:59:09.076Z,13.30
2018-05-26T02:01:42.646Z,13.30
2018-05-26T02:04:16.241Z,13.30
2018-05-26T02:06:50.210Z,13.30
2018-05-26T02:09:23.752Z,13.10
2018-05-26T02:11:57.306Z,13.20
2018-05-26T02:14:30.916Z,13.20
2018-05-26T02:17:04.464Z,13.10
2018-05-26T02:19:38.127Z,13.10
2018-05-26T02:22:12.121Z,13.10
2018-05-26T02:24:45.932Z,13.10
2018-05-26T02:27:19.860Z,13.10
2018-05-26T02:29:53.552Z,13.20
2018-05-26T02:32:27.360Z,13.10
2018-05-26T02:35:00.959Z,12.90
2018-05-26T02:37:34.575Z,12.90
2018-05-26T02:40:08.977Z,12.90
2018-05-26T02:42:43.079Z,12.90
2018-05-26T02:45:16.858Z,13.00
2018-05-26T02:47:50.660Z,12.90
2018-05-26T02:50:25.083Z,12.80
2018-05-26T02:52:58.730Z,12.80
2018-05-26T02:55:32.290Z,12.80
2018-05-26T02:58:06.031Z,12.80
2018-05-26T03:00:40.482Z,12.80
2018-05-26T03:03:14.768Z,12.40
2018-05-26T03:05:54.161Z,12.10
2018-05-26T03:08:34.099Z,12.30
2018-05-26T03:11:13.599Z,12.30
2018-05-26T03:13:52.891Z,12.40
2018-05-26T03:16:32.152Z,12.50
2018-05-26T03:19:06.484Z,11.80
2018-05-26T03:21:40.685Z,11.80
2018-05-26T03:24:14.200Z,11.20
2018-05-26T03:26:47.778Z,11.50
2018-05-26T03:29:21.885Z,11.80
2018-05-26T03:31:55.991Z,11.90
2018-05-26T03:34:29.640Z,12.00
2018-05-26T03:37:03.938Z,11.70
2018-05-26T03:39:38.353Z,11.70
2018-05-26T03:42:11.999Z,11.70
2018-05-26T03:44:45.597Z,11.90
2018-05-26T03:47:19.381Z,11.90
2018-05-26T03:49:53.615Z,12.10
2018-05-26T03:52:27.203Z,11.70
2018-05-26T04:08:35.553Z,11.80
2018-05-26T04:11:09.178Z,11.60
2018-05-26T04:13:43.458Z,11.10
2018-05-26T04:16:16.968Z,11.10
2018-05-26T04:18:50.556Z,10.80
2018-05-26T04:21:24.108Z,11.00
2018-05-26T04:23:57.723Z,11.30
2018-05-26T04:26:31.324Z,11.50
2018-05-26T04:29:05.613Z,11.50
2018-05-26T04:31:40.774Z,11.70
2018-05-26T04:34:14.793Z,11.60
2018-05-26T04:36:48.401Z,11.80
2018-05-26T04:39:21.960Z,12.00
2018-05-26T04:41:55.516Z,12.20
2018-05-26T04:44:29.024Z,12.20
2018-05-26T04:47:02.625Z,12.40
2018-05-26T04:49:36.129Z,12.50
2018-05-26T04:52:09.720Z,12.50
2018-05-26T04:54:43.256Z,12.60
2018-05-26T04:57:16.869Z,12.70
2018-05-26T04:59:50.527Z,12.80
2018-05-26T05:02:24.125Z,12.80
2018-05-26T05:04:58.455Z,12.20
2018-05-26T05:07:32.075Z,12.20
2018-05-26T05:10:05.670Z,12.10
2018-05-26T05:12:39.248Z,12.40
2018-05-26T05:15:12.987Z,12.70
2018-05-26T05:17:46.626Z,13.00
2018-05-26T05:20:21.019Z,13.30
2018-05-26T05:22:54.794Z,13.30
2018-05-26T05:25:28.360Z,13.50
2018-05-26T05:28:01.916Z,13.60
2018-05-26T05:30:35.492Z,13.80
2018-05-26T05:33:09.832Z,14.20
2018-05-26T05:35:43.451Z,14.20
2018-05-26T05:38:17.111Z,13.90
2018-05-26T05:40:50.681Z,14.00
2018-05-26T05:43:24.256Z,14.00
2018-05-26T05:45:57.785Z,14.00
2018-05-26T05:48:31.324Z,14.20
2018-05-26T05:51:04.875Z,14.40
2018-05-26T05:53:39.249Z,14.30
2018-05-26T05:56:12.975Z,14.30
2018-05-26T05:58:47.249Z,14.60
2018-05-26T06:01:21.513Z,14.90
2018-05-26T06:03:55.142Z,14.80
2018-05-26T06:06:28.719Z,15.10
2018-05-26T06:09:02.271Z,15.20
2018-05-26T06:11:35.852Z,15.40
2018-05-26T06:14:10.183Z,15.60
2018-05-26T06:16:43.876Z,15.60
2018-05-26T06:19:17.396Z,15.60
2018-05-26T06:21:50.988Z,15.70
2018-05-26T06:24:24.556Z,15.70
2018-05-26T06:26:58.193Z,15.70
2018-05-26T06:29:31.776Z,15.80
2018-05-26T06:32:05.355Z,16.00
2018-05-26T06:34:38.925Z,16.20
2018-05-26T06:37:13.303Z,16.50
2018-05-26T06:39:47.060Z,16.50
2018-05-26T06:42:20.613Z,16.70
2018-05-26T06:44:54.962Z,16.90
2018-05-26T06:47:29.369Z,17.10
2018-05-26T06:50:03.047Z,17.10
2018-05-26T06:52:36.571Z,17.30
2018-05-26T06:55:10.055Z,17.40
2018-05-26T06:57:44.360Z,17.60
2018-05-26T07:00:18.038Z,17.60
2018-05-26T07:02:51.724Z,17.70
2018-05-26T07:05:26.035Z,18.00
2018-05-26T07:07:59.700Z,18.00
2018-05-26T07:10:34.006Z,18.30
2018-05-26T07:13:07.635Z,18.30
2018-05-26T07:15:42.085Z,18.50
2018-05-26T07:18:15.664Z,18.50
2018-05-26T07:20:49.469Z,18.70
2018-05-26T07:23:23.771Z,19.00
2018-05-26T07:25:57.505Z,19.00
2018-05-26T07:28:31.084Z,19.00
2018-05-26T07:31:04.599Z,19.10
2018-05-26T07:33:38.287Z,19.10
2018-05-26T07:36:11.804Z,19.30
2018-05-26T07:38:45.407Z,19.50
2018-05-26T07:41:19.008Z,19.50
2018-05-26T07:43:52.685Z,19.70
2018-05-26T07:46:26.321Z,19.80
2018-05-26T07:49:00.093Z,20.00
2018-05-26T07:51:34.421Z,20.00
2018-05-26T07:54:08.091Z,20.00
2018-05-26T07:56:41.620Z,19.90
2018-05-26T07:59:15.150Z,20.00
2018-05-26T08:01:48.695Z,20.30
2018-05-26T08:04:22.276Z,20.50
2018-05-26T08:06:55.816Z,20.70
2018-05-26T08:09:29.593Z,20.90
2018-05-26T08:12:03.132Z,20.80
2018-05-26T08:14:36.678Z,21.00
2018-05-26T08:17:10.310Z,21.10
2018-05-26T08:19:43.800Z,21.10
2018-05-26T08:22:18.416Z,21.20
2018-05-26T08:24:52.096Z,21.20
2018-05-26T08:27:25.863Z,21.40
2018-05-26T08:29:59.542Z,21.60
2018-05-26T08:32:33.113Z,21.50
2018-05-26T08:35:06.636Z,21.60
2018-05-26T08:37:41.134Z,21.90
2018-05-26T08:40:15.559Z,22.00
2018-05-26T08:42:49.494Z,22.00
2018-05-26T08:45:23.189Z,22.30
2018-05-26T08:47:56.712Z,22.30
2018-05-26T08:50:30.294Z,22.30
2018-05-26T08:53:03.863Z,22.30
2018-05-26T08:55:37.441Z,22.40
2018-05-26T08:58:11.007Z,22.40
2018-05-26T09:00:44.653Z,22.80
2018-05-26T09:03:18.348Z,23.00
2018-05-26T09:05:51.998Z,23.10
2018-05-26T09:08:26.408Z,23.40
2018-05-26T09:11:00.184Z,23.40
2018-05-26T09:13:33.816Z,23.50
2018-05-26T09:16:07.371Z,23.60
2018-05-26T09:18:41.032Z,23.60
2018-05-26T09:21:14.705Z,23.40
2018-05-26T09:23:48.446Z,23.50
2018-05-26T09:26:21.989Z,23.40
2018-05-26T09:28:55.725Z,23.40
2018-05-26T09:31:30.030Z,23.20
2018-05-26T09:34:03.607Z,23.10
2018-05-26T09:36:37.141Z,23.30
2018-05-26T09:39:10.967Z,23.50
2018-05-26T09:41:44.684Z,23.80
2018-05-26T09:44:18.244Z,23.60
2018-05-26T09:46:53.555Z,24.00
2018-05-26T09:49:27.104Z,24.00
2018-05-26T09:52:01.640Z,24.30
2018-05-26T09:54:35.332Z,24.20
2018-05-26T09:57:09.632Z,24.40
2018-05-26T09:59:43.289Z,24.40
2018-05-26T10:02:16.963Z,24.20
2018-05-26T10:04:50.623Z,24.10
2018-05-26T10:07:24.300Z,24.00
2018-05-26T10:09:58.050Z,24.00
2018-05-26T10:12:31.685Z,24.10
2018-05-26T10:15:05.201Z,24.30
2018-05-26T10:17:39.658Z,24.30
2018-05-26T10:20:14.090Z,24.30
2018-05-26T10:22:47.862Z,24.30
2018-05-26T10:25:22.199Z,24.60
2018-05-26T10:27:55.830Z,24.50
2018-05-26T10:30:29.434Z,24.70
2018-05-26T10:33:03.161Z,24.70
2018-05-26T10:35:37.447Z,24.70
2018-05-26T10:38:11.168Z,24.70
2018-05-26T10:40:44.674Z,24.80
2018-05-26T10:43:18.245Z,24.80
2018-05-26T10:46:03.721Z,24.60
2018-05-26T10:48:37.259Z,24.40
2018-05-26T10:51:10.939Z,24.40
2018-05-26T10:53:45.311Z,24.60
2018-05-26T10:56:19.688Z,24.60
2018-05-26T10:58:53.380Z,24.60
2018-05-26T11:01:27.073Z,24.80
2018-05-26T11:04:00.779Z,24.90
2018-05-26T11:06:46.291Z,24.80
2018-05-26T11:09:20.763Z,24.70
2018-05-26T11:11:54.489Z,24.70
2018-05-26T11:14:28.181Z,24.80
2018-05-26T11:17:01.756Z,24.90
2018-05-26T11:19:35.368Z,25.10
2018-05-26T11:22:08.988Z,24.80
2018-05-26T11:24:42.695Z,24.80
2018-05-26T11:27:16.265Z,24.70
2018-05-26T11:29:49.937Z,25.00
2018-05-26T11:32:23.573Z,25.00
2018-05-26T11:34:57.199Z,25.10
2018-05-26T11:37:30.743Z,25.00
2018-05-26T11:40:04.334Z,25.00
2018-05-26T11:42:37.871Z,25.00
2018-05-26T11:45:11.375Z,25.10
2018-05-26T11:47:45.016Z,25.00
2018-05-26T11:50:18.944Z,24.90
2018-05-26T11:52:52.524Z,24.70
2018-05-26T11:55:26.204Z,24.90
2018-05-26T11:58:00.594Z,25.10
2018-05-26T12:00:34.355Z,25.10
2018-05-26T12:03:08.007Z,25.20
2018-05-26T12:05:41.604Z,25.50
2018-05-26T12:08:15.311Z,25.30
2018-05-26T12:10:48.940Z,25.20
2018-05-26T12:13:22.535Z,25.00
2018-05-26T12:15:56.255Z,25.00
2018-05-26T12:18:29.825Z,25.20
2018-05-26T12:21:03.353Z,25.00
2018-05-26T12:23:37.027Z,24.70
2018-05-26T12:26:10.739Z,24.60
2018-05-26T12:28:44.388Z,24.90
2018-05-26T12:31:18.860Z,25.40
2018-05-26T12:33:52.459Z,25.30
2018-05-26T12:36:27.597Z,25.80
2018-05-26T12:39:01.323Z,25.80
2018-05-26T12:41:35.698Z,25.60
2018-05-26T12:44:09.324Z,25.60
2018-05-26T12:46:43.028Z,25.50
2018-05-26T12:49:16.533Z,25.60
2018-05-26T12:51:51.011Z,26.10
2018-05-26T12:54:24.543Z,26.00
2018-05-26T12:56:58.083Z,25.80
2018-05-26T12:59:31.919Z,25.70
2018-05-26T13:02:05.520Z,25.60
2018-05-26T13:04:39.114Z,25.40
2018-05-26T13:07:12.869Z,25.50
2018-05-26T13:09:46.433Z,25.60
2018-05-26T13:12:20.764Z,25.90
2018-05-26T13:14:54.784Z,25.80
2018-05-26T13:17:28.577Z,25.90
2018-05-26T13:20:02.415Z,25.50
2018-05-26T13:22:36.043Z,25.60
2018-05-26T13:25:09.655Z,25.60
2018-05-26T13:27:43.407Z,25.70
2018-05-26T13:30:17.816Z,25.90
2018-05-26T13:32:51.378Z,25.90
2018-05-26T13:35:25.832Z,26.00
2018-05-26T13:38:00.128Z,26.30
2018-05-26T13:40:33.666Z,26.30
2018-05-26T13:43:07.284Z,26.50
2018-05-26T13:45:40.892Z,26.20
2018-05-26T13:48:14.630Z,26.20
2018-05-26T13:50:48.396Z,26.30
2018-05-26T13:53:22.935Z,26.40
2018-05-26T13:55:56.725Z,26.40
2018-05-26T13:58:30.378Z,26.50
2018-05-26T14:01:04.049Z,26.60
2018-05-26T14:03:37.709Z,26.60
2018-05-26T14:06:11.252Z,26.60
2018-05-26T14:08:44.976Z,26.50
2018-05-26T14:11:18.601Z,26.30
2018-05-26T14:13:52.238Z,26.40
2018-05-26T14:16:25.930Z,26.60
2018-05-26T14:19:00.404Z,26.30
2018-05-26T14:21:34.004Z,26.20
2018-05-26T14:24:07.836Z,26.60
2018-05-26T14:26:41.622Z,26.90
2018-05-26T14:29:15.356Z,27.10
2018-05-26T14:31:49.669Z,27.20
2018-05-26T14:34:23.290Z,27.20
2018-05-26T14:36:57.652Z,27.10
2018-05-26T14:39:31.164Z,27.10
2018-05-26T14:42:04.813Z,26.60
2018-05-26T14:44:38.487Z,26.80
2018-05-26T14:47:12.168Z,27.00
2018-05-26T14:49:45.738Z,26.80
2018-05-26T14:52:20.285Z,26.60
2018-05-26T14:54:54.625Z,26.80
2018-05-26T14:57:28.199Z,26.80
2018-05-26T15:00:01.716Z,26.90
2018-05-26T15:02:36.144Z,26.50
2018-05-26T15:05:09.755Z,26.50
2018-05-26T15:07:43.476Z,26.60
2018-05-26T15:10:17.030Z,26.40
2018-05-26T15:12:50.654Z,26.40
2018-05-26T15:15:24.238Z,26.60
2018-05-26T15:17:57.956Z,26.30
2018-05-26T15:20:31.720Z,26.30
2018-05-26T15:23:05.380Z,26.40
2018-05-26T15:25:38.947Z,26.40
2018-05-26T15:28:12.619Z,26.40
2018-05-26T15:30:46.293Z,26.60
2018-05-26T15:33:20.009Z,27.00
2018-05-26T15:35:53.544Z,27.20
2018-05-26T15:38:27.077Z,27.30
2018-05-26T15:41:01.367Z,27.20
2018-05-26T15:43:34.871Z,27.20
2018-05-26T15:46:09.316Z,27.10
2018-05-26T15:48:42.876Z,27.10
2018-05-26T15:51:16.424Z,27.60
2018-05-26T15:53:50.127Z,27.20
2018-05-26T15:56:24.577Z,27.30
2018-05-26T15:58:58.104Z,27.30
2018-05-26T16:01:31.652Z,27.00
2018-05-26T16:04:06.128Z,27.70
2018-05-26T16:06:39.724Z,27.60
2018-05-26T16:09:13.470Z,28.10
2018-05-26T16:11:47.159Z,28.30
2018-05-26T16:14:20.947Z,27.60
2018-05-26T16:16:54.671Z,27.70
2018-05-26T16:19:28.389Z,28.40
2018-05-26T16:22:02.695Z,27.20
2018-05-26T16:24:36.492Z,27.20
2018-05-26T16:27:10.889Z,27.10
2018-05-26T16:29:44.466Z,27.10
2018-05-26T16:32:18.168Z,26.90
2018-05-26T16:34:51.852Z,27.40
2018-05-26T16:37:25.430Z,27.40
2018-05-26T16:39:58.928Z,27.50
2018-05-26T16:42:33.430Z,27.90
2018-05-26T16:45:06.960Z,27.80
2018-05-26T16:47:40.518Z,27.30
2018-05-26T16:50:15.056Z,27.70
2018-05-26T16:52:48.755Z,27.70
2018-05-26T16:55:22.447Z,27.90
2018-05-26T16:57:56.788Z,28.00
2018-05-26T17:00:30.555Z,28.00
2018-05-26T17:03:04.072Z,28.40
2018-05-26T17:05:38.518Z,28.50
2018-05-26T17:08:12.056Z,28.50
2018-05-26T17:10:45.716Z,28.50
2018-05-26T17:13:19.274Z,27.90
2018-05-26T17:15:52.976Z,28.20
2018-05-26T17:18:26.517Z,28.30
2018-05-26T17:21:00.111Z,28.20
2018-05-26T17:23:33.861Z,28.00
2018-05-26T17:26:07.421Z,28.00
2018-05-26T17:28:40.941Z,27.50
2018-05-26T17:31:14.477Z,27.20
2018-05-26T17:33:48.792Z,26.90
2018-05-26T17:36:22.506Z,26.90
2018-05-26T17:38:56.089Z,26.80
2018-05-26T17:41:29.749Z,26.70
2018-05-26T17:44:03.285Z,26.40
2018-05-26T17:46:36.924Z,26.40
2018-05-26T17:49:10.475Z,26.30
2018-05-26T17:51:44.918Z,26.40
2018-05-26T17:54:18.555Z,26.40
2018-05-26T17:56:52.129Z,26.20
2018-05-26T17:59:25.805Z,25.90
2018-05-26T18:01:59.319Z,25.70
2018-05-26T18:04:32.927Z,25.40
2018-05-26T18:07:06.626Z,25.40
2018-05-26T18:09:40.605Z,25.20
2018-05-26T18:12:14.172Z,25.00
2018-05-26T18:14:47.872Z,24.80
2018-05-26T18:17:21.415Z,24.50
2018-05-26T18:19:55.135Z,24.30
2018-05-26T18:22:28.706Z,24.30
2018-05-26T18:25:02.318Z,24.30
2018-05-26T18:27:36.096Z,24.30
2018-05-26T18:30:09.627Z,24.30
2018-05-26T18:32:43.414Z,24.30
2018-05-26T18:35:16.978Z,24.20
2018-05-26T18:37:51.383Z,24.10
2018-05-26T18:40:25.098Z,24.10
2018-05-26T18:42:58.687Z,24.10
2018-05-26T18:45:32.208Z,24.00
2018-05-26T18:48:05.755Z,24.00
2018-05-26T18:50:39.514Z,23.80
2018-05-26T18:53:13.167Z,23.70
2018-05-26T18:55:46.888Z,23.60
2018-05-26T18:58:20.727Z,23.40
2018-05-26T19:00:54.337Z,23.30
2018-05-26T19:03:27.904Z,23.20
2018-05-26T19:06:01.497Z,23.00
2018-05-26T19:08:35.095Z,22.80
2018-05-26T19:11:08.618Z,22.70
2018-05-26T19:13:42.188Z,22.60
2018-05-26T19:16:15.722Z,22.50
2018-05-26T19:18:50.092Z,22.30
2018-05-26T19:21:23.590Z,22.30
2018-05-26T19:23:57.239Z,22.20
2018-05-26T19:26:32.098Z,22.00
2018-05-26T19:29:05.814Z,21.90
2018-05-26T19:31:40.172Z,21.50
2018-05-26T19:34:14.562Z,21.50
2018-05-26T19:36:48.261Z,21.50
2018-05-26T19:39:22.048Z,21.50
2018-05-26T19:41:55.598Z,21.40
2018-05-26T19:44:29.224Z,21.40
2018-05-26T19:47:03.786Z,21.10
2018-05-26T19:49:37.486Z,21.10
2018-05-26T19:52:11.056Z,21.00
2018-05-26T19:54:44.594Z,20.90
2018-05-26T19:57:18.113Z,20.90
2018-05-26T19:59:51.636Z,20.90
2018-05-26T20:02:25.222Z,20.80
2018-05-26T20:04:58.942Z,20.70
2018-05-26T20:07:32.525Z,20.60
2018-05-26T20:10:06.088Z,20.70
2018-05-26T20:12:39.711Z,20.60
2018-05-26T20:15:13.411Z,20.40
2018-05-26T20:17:46.999Z,20.30
2018-05-26T20:20:20.511Z,20.20
2018-05-26T20:22:54.933Z,20.00
2018-05-26T20:25:29.330Z,20.00
2018-05-26T20:28:02.985Z,20.00
2018-05-26T20:30:36.554Z,19.90
2018-05-26T20:33:10.063Z,19.90
2018-05-26T20:35:44.382Z,19.70
2018-05-26T20:38:18.040Z,19.60
2018-05-26T20:40:51.665Z,19.60
2018-05-26T20:43:25.295Z,19.40
2018-05-26T20:45:58.871Z,19.40
2018-05-26T20:48:33.193Z,19.30
2018-05-26T20:51:07.513Z,19.10
2018-05-26T20:53:41.032Z,19.10
2018-05-26T20:56:14.735Z,19.00
2018-05-26T20:58:48.381Z,19.00
2018-05-26T21:01:21.960Z,18.90
2018-05-26T21:03:55.483Z,18.80
2018-05-26T21:06:29.009Z,18.80
2018-05-26T21:09:02.694Z,18.80
2018-05-26T21:11:36.198Z,18.60
2018-05-26T21:14:09.714Z,18.50
2018-05-26T21:16:44.145Z,18.40
2018-05-26T21:19:17.841Z,18.40
2018-05-26T21:21:51.436Z,18.40
2018-05-26T21:24:24.929Z,18.30
2018-05-26T21:26:58.597Z,18.30
2018-05-26T21:29:32.132Z,18.20
2018-05-26T21:32:06.443Z,18.00
2018-05-26T21:34:40.136Z,17.90
2018-05-26T21:37:13.677Z,17.90
2018-05-26T21:39:48.164Z,17.80
2018-05-26T21:42:22.014Z,17.70
2018-05-26T21:44:56.528Z,17.60
2018-05-26T21:47:33.147Z,17.50
2018-05-26T21:50:06.892Z,17.50
2018-05-26T21:52:40.573Z,17.50
2018-05-26T21:55:14.284Z,17.40
2018-05-26T21:57:47.855Z,17.30
2018-05-26T22:00:22.267Z,17.40
2018-05-26T22:02:55.967Z,17.30
2018-05-26T22:05:30.320Z,17.30
2018-05-26T22:08:03.964Z,17.30
2018-05-26T22:10:37.534Z,17.20
2018-05-26T22:13:11.146Z,17.10
2018-05-26T22:15:44.668Z,17.00
2018-05-26T22:18:18.225Z,16.90
2018-05-26T22:20:51.801Z,16.80
2018-05-26T22:23:25.511Z,16.80
2018-05-26T22:25:59.158Z,16.80
2018-05-26T22:28:32.745Z,16.70
2018-05-26T22:31:06.276Z,16.70
2018-05-26T22:33:39.828Z,16.70
2018-05-26T22:36:13.426Z,16.60
2018-05-26T22:38:47.097Z,16.70
2018-05-26T22:41:20.724Z,16.70
2018-05-26T22:43:54.319Z,16.70
2018-05-26T22:46:27.827Z,16.60
2018-05-26T22:49:02.161Z,16.40
2018-05-26T22:51:35.905Z,16.40
2018-05-26T22:54:09.551Z,16.50
2018-05-26T22:56:43.188Z,16.50
2018-05-26T22:59:16.778Z,16.40
2018-05-26T23:01:51.079Z,16.20
2018-05-26T23:04:24.558Z,16.20
2018-05-26T23:06:58.143Z,16.20
2018-05-26T23:09:31.817Z,16.10
2018-05-26T23:12:05.465Z,16.30
2018-05-26T23:14:39.034Z,16.40
2018-05-26T23:17:13.360Z,16.40
2018-05-26T23:19:46.880Z,16.40
2018-05-26T23:22:20.426Z,16.40
2018-05-26T23:24:54.119Z,16.30
2018-05-26T23:27:27.669Z,16.40
2018-05-26T23:30:01.197Z,16.40
2018-05-26T23:32:34.699Z,16.30
2018-05-26T23:35:08.969Z,16.20
2018-05-26T23:37:42.631Z,16.20
2018-05-26T23:40:16.211Z,16.20
2018-05-26T23:42:50.500Z,15.80
2018-05-26T23:45:24.191Z,15.80
2018-05-26T23:47:57.763Z,15.80
2018-05-26T23:50:31.353Z,15.70
2018-05-26T23:53:04.880Z,15.80
2018-05-26T23:55:39.167Z,15.70
2018-05-26T23:58:13.570Z,15.60
